sensor_id;sensor_type;location;lat;lon;timestamp;P1;durP1;ratioP1;P2;durP2;ratioP2
55368;SDS011;41247;49.736;8.752;2023-08-07T00:01:18;8.95;;;2.08;;
55368;SDS011;41247;49.736;8.752;2023-08-07T00:04:59;10.35;;;2.08;;
55368;SDS011;41247;49.736;8.752;2023-08-07T00:08:39;11.82;;;2.30;;
55368;SDS011;41247;49.736;8.752;2023-08-07T00:12:20;10.43;;;2.35;;
55368;SDS011;41247;49.736;8.752;2023-08-07T00:16:00;6.90;;;2.38;;
55368;SDS011;41247;49.736;8.752;2023-08-07T00:19:41;15.27;;;2.50;;
55368;SDS011;41247;49.736;8.752;2023-08-07T00:23:22;12.95;;;3.05;;
55368;SDS011;41247;49.736;8.752;2023-08-07T00:27:03;14.70;;;3.05;;
55368;SDS011;41247;49.736;8.752;2023-08-07T00:30:43;8.98;;;2.70;;
55368;SDS011;41247;49.736;8.752;2023-08-07T00:34:24;15.75;;;3.72;;
55368;SDS011;41247;49.736;8.752;2023-08-07T00:38:05;10.52;;;3.28;;
55368;SDS011;41247;49.736;8.752;2023-08-07T00:41:45;13.23;;;3.40;;
55368;SDS011;41247;49.736;8.752;2023-08-07T00:45:26;16.45;;;4.05;;
55368;SDS011;41247;49.736;8.752;2023-08-07T00:49:06;13.27;;;3.50;;
55368;SDS011;41247;49.736;8.752;2023-08-07T00:52:50;9.43;;;3.92;;
55368;SDS011;41247;49.736;8.752;2023-08-07T00:56:30;12.90;;;3.80;;
55368;SDS011;41247;49.736;8.752;2023-08-07T01:00:13;9.32;;;3.95;;
55368;SDS011;41247;49.736;8.752;2023-08-07T01:03:54;15.20;;;4.15;;
55368;SDS011;41247;49.736;8.752;2023-08-07T01:07:35;14.07;;;4.03;;
55368;SDS011;41247;49.736;8.752;2023-08-07T01:15:03;14.55;;;3.83;;
55368;SDS011;41247;49.736;8.752;2023-08-07T01:18:56;10.38;;;3.80;;
55368;SDS011;41247;49.736;8.752;2023-08-07T01:22:40;19.42;;;4.53;;
55368;SDS011;41247;49.736;8.752;2023-08-07T01:26:21;18.80;;;4.50;;
55368;SDS011;41247;49.736;8.752;2023-08-07T01:30:06;18.63;;;4.43;;
55368;SDS011;41247;49.736;8.752;2023-08-07T01:34:15;16.90;;;4.65;;
55368;SDS011;41247;49.736;8.752;2023-08-07T01:38:00;15.27;;;4.00;;
55368;SDS011;41247;49.736;8.752;2023-08-07T01:41:42;15.32;;;4.10;;
55368;SDS011;41247;49.736;8.752;2023-08-07T01:45:26;24.48;;;4.55;;
55368;SDS011;41247;49.736;8.752;2023-08-07T01:49:08;8.00;;;4.05;;
55368;SDS011;41247;49.736;8.752;2023-08-07T01:52:48;17.55;;;4.65;;
55368;SDS011;41247;49.736;8.752;2023-08-07T01:56:29;20.17;;;4.15;;
55368;SDS011;41247;49.736;8.752;2023-08-07T02:00:10;21.05;;;5.60;;
55368;SDS011;41247;49.736;8.752;2023-08-07T02:03:52;16.75;;;4.13;;
55368;SDS011;41247;49.736;8.752;2023-08-07T02:07:33;13.48;;;4.07;;
55368;SDS011;41247;49.736;8.752;2023-08-07T02:11:14;10.10;;;3.63;;
55368;SDS011;41247;49.736;8.752;2023-08-07T02:14:54;26.00;;;5.25;;
55368;SDS011;41247;49.736;8.752;2023-08-07T02:18:35;14.98;;;4.97;;
55368;SDS011;41247;49.736;8.752;2023-08-07T02:22:17;15.20;;;4.03;;
55368;SDS011;41247;49.736;8.752;2023-08-07T02:25:57;19.85;;;5.72;;
55368;SDS011;41247;49.736;8.752;2023-08-07T02:29:38;16.75;;;4.22;;
55368;SDS011;41247;49.736;8.752;2023-08-07T02:33:19;21.35;;;4.90;;
55368;SDS011;41247;49.736;8.752;2023-08-07T02:37:00;17.73;;;4.68;;
55368;SDS011;41247;49.736;8.752;2023-08-07T02:40:40;21.55;;;4.93;;
55368;SDS011;41247;49.736;8.752;2023-08-07T02:44:21;22.38;;;4.82;;
55368;SDS011;41247;49.736;8.752;2023-08-07T02:48:02;9.82;;;4.88;;
55368;SDS011;41247;49.736;8.752;2023-08-07T02:51:43;19.42;;;4.93;;
55368;SDS011;41247;49.736;8.752;2023-08-07T02:55:23;12.98;;;3.90;;
55368;SDS011;41247;49.736;8.752;2023-08-07T02:59:04;19.42;;;4.70;;
55368;SDS011;41247;49.736;8.752;2023-08-07T03:02:45;19.30;;;4.72;;
55368;SDS011;41247;49.736;8.752;2023-08-07T03:06:25;16.98;;;3.85;;
55368;SDS011;41247;49.736;8.752;2023-08-07T03:10:08;12.82;;;3.88;;
55368;SDS011;41247;49.736;8.752;2023-08-07T03:13:49;16.48;;;4.47;;
55368;SDS011;41247;49.736;8.752;2023-08-07T03:17:33;18.83;;;5.43;;
55368;SDS011;41247;49.736;8.752;2023-08-07T03:21:14;14.73;;;4.38;;
55368;SDS011;41247;49.736;8.752;2023-08-07T03:24:57;11.80;;;4.15;;
55368;SDS011;41247;49.736;8.752;2023-08-07T03:28:37;11.80;;;4.95;;
55368;SDS011;41247;49.736;8.752;2023-08-07T03:32:18;19.75;;;4.70;;
55368;SDS011;41247;49.736;8.752;2023-08-07T03:36:00;18.35;;;4.63;;
55368;SDS011;41247;49.736;8.752;2023-08-07T03:39:41;18.08;;;4.82;;
55368;SDS011;41247;49.736;8.752;2023-08-07T03:43:21;20.45;;;4.53;;
55368;SDS011;41247;49.736;8.752;2023-08-07T03:47:02;19.98;;;4.53;;
55368;SDS011;41247;49.736;8.752;2023-08-07T03:50:43;13.40;;;4.57;;
55368;SDS011;41247;49.736;8.752;2023-08-07T03:54:24;13.07;;;3.70;;
55368;SDS011;41247;49.736;8.752;2023-08-07T03:58:05;16.63;;;3.97;;
55368;SDS011;41247;49.736;8.752;2023-08-07T04:01:45;17.38;;;4.38;;
55368;SDS011;41247;49.736;8.752;2023-08-07T04:05:26;14.15;;;4.20;;
55368;SDS011;41247;49.736;8.752;2023-08-07T04:09:06;14.18;;;3.97;;
55368;SDS011;41247;49.736;8.752;2023-08-07T04:12:47;12.50;;;4.43;;
55368;SDS011;41247;49.736;8.752;2023-08-07T04:16:27;16.63;;;3.90;;
55368;SDS011;41247;49.736;8.752;2023-08-07T04:20:08;13.68;;;3.72;;
55368;SDS011;41247;49.736;8.752;2023-08-07T04:23:49;10.18;;;3.50;;
55368;SDS011;41247;49.736;8.752;2023-08-07T04:27:29;15.70;;;3.47;;
55368;SDS011;41247;49.736;8.752;2023-08-07T04:31:10;18.73;;;3.50;;
55368;SDS011;41247;49.736;8.752;2023-08-07T04:34:51;14.38;;;3.30;;
55368;SDS011;41247;49.736;8.752;2023-08-07T04:38:31;11.10;;;4.22;;
55368;SDS011;41247;49.736;8.752;2023-08-07T04:42:12;16.63;;;3.47;;
55368;SDS011;41247;49.736;8.752;2023-08-07T04:45:52;16.75;;;3.40;;
55368;SDS011;41247;49.736;8.752;2023-08-07T04:49:33;14.50;;;3.03;;
55368;SDS011;41247;49.736;8.752;2023-08-07T04:53:14;10.82;;;3.58;;
55368;SDS011;41247;49.736;8.752;2023-08-07T04:56:54;15.57;;;3.40;;
55368;SDS011;41247;49.736;8.752;2023-08-07T05:00:35;13.32;;;3.35;;
55368;SDS011;41247;49.736;8.752;2023-08-07T05:04:16;13.00;;;3.50;;
55368;SDS011;41247;49.736;8.752;2023-08-07T05:07:57;12.20;;;3.47;;
55368;SDS011;41247;49.736;8.752;2023-08-07T05:11:38;14.88;;;3.20;;
55368;SDS011;41247;49.736;8.752;2023-08-07T05:15:19;16.90;;;3.45;;
55368;SDS011;41247;49.736;8.752;2023-08-07T05:18:59;11.13;;;3.17;;
55368;SDS011;41247;49.736;8.752;2023-08-07T05:22:40;8.10;;;3.03;;
55368;SDS011;41247;49.736;8.752;2023-08-07T05:26:21;15.80;;;3.67;;
55368;SDS011;41247;49.736;8.752;2023-08-07T05:30:02;13.18;;;3.28;;
55368;SDS011;41247;49.736;8.752;2023-08-07T05:33:43;11.75;;;3.40;;
55368;SDS011;41247;49.736;8.752;2023-08-07T05:37:23;13.77;;;3.17;;
55368;SDS011;41247;49.736;8.752;2023-08-07T05:41:04;16.05;;;3.60;;
55368;SDS011;41247;49.736;8.752;2023-08-07T05:44:44;10.27;;;3.20;;
55368;SDS011;41247;49.736;8.752;2023-08-07T05:48:27;16.63;;;3.58;;
55368;SDS011;41247;49.736;8.752;2023-08-07T05:52:08;11.32;;;3.13;;
55368;SDS011;41247;49.736;8.752;2023-08-07T05:55:49;14.23;;;3.47;;
55368;SDS011;41247;49.736;8.752;2023-08-07T05:59:33;10.13;;;3.42;;
55368;SDS011;41247;49.736;8.752;2023-08-07T06:03:21;17.38;;;3.97;;
55368;SDS011;41247;49.736;8.752;2023-08-07T06:07:09;17.67;;;4.35;;
55368;SDS011;41247;49.736;8.752;2023-08-07T06:14:30;20.52;;;4.25;;
55368;SDS011;41247;49.736;8.752;2023-08-07T06:18:12;17.63;;;4.07;;
55368;SDS011;41247;49.736;8.752;2023-08-07T06:21:53;14.18;;;3.97;;
55368;SDS011;41247;49.736;8.752;2023-08-07T06:25:34;18.02;;;4.47;;
55368;SDS011;41247;49.736;8.752;2023-08-07T06:29:15;15.27;;;4.90;;
55368;SDS011;41247;49.736;8.752;2023-08-07T06:32:55;13.27;;;4.53;;
55368;SDS011;41247;49.736;8.752;2023-08-07T06:36:36;16.58;;;4.25;;
55368;SDS011;41247;49.736;8.752;2023-08-07T06:40:16;17.60;;;5.18;;
55368;SDS011;41247;49.736;8.752;2023-08-07T06:43:59;14.98;;;4.95;;
55368;SDS011;41247;49.736;8.752;2023-08-07T06:47:40;23.25;;;5.22;;
55368;SDS011;41247;49.736;8.752;2023-08-07T06:51:20;15.68;;;5.07;;
55368;SDS011;41247;49.736;8.752;2023-08-07T06:55:02;15.10;;;4.65;;
55368;SDS011;41247;49.736;8.752;2023-08-07T06:58:44;16.63;;;5.00;;
55368;SDS011;41247;49.736;8.752;2023-08-07T07:02:28;16.23;;;5.18;;
55368;SDS011;41247;49.736;8.752;2023-08-07T07:06:08;16.20;;;5.00;;
55368;SDS011;41247;49.736;8.752;2023-08-07T07:09:49;19.38;;;4.90;;
55368;SDS011;41247;49.736;8.752;2023-08-07T07:13:30;14.18;;;4.60;;
55368;SDS011;41247;49.736;8.752;2023-08-07T07:17:10;11.43;;;4.88;;
55368;SDS011;41247;49.736;8.752;2023-08-07T07:20:56;15.73;;;4.97;;
55368;SDS011;41247;49.736;8.752;2023-08-07T07:24:39;23.20;;;5.00;;
55368;SDS011;41247;49.736;8.752;2023-08-07T07:28:20;17.27;;;5.38;;
55368;SDS011;41247;49.736;8.752;2023-08-07T07:32:01;17.45;;;4.88;;
55368;SDS011;41247;49.736;8.752;2023-08-07T07:35:41;15.68;;;5.43;;
55368;SDS011;41247;49.736;8.752;2023-08-07T07:39:22;19.73;;;5.80;;
55368;SDS011;41247;49.736;8.752;2023-08-07T07:43:03;11.15;;;4.50;;
55368;SDS011;41247;49.736;8.752;2023-08-07T07:46:43;17.92;;;5.30;;
55368;SDS011;41247;49.736;8.752;2023-08-07T07:50:24;18.25;;;5.40;;
55368;SDS011;41247;49.736;8.752;2023-08-07T07:54:05;16.38;;;5.03;;
55368;SDS011;41247;49.736;8.752;2023-08-07T07:57:45;19.67;;;5.53;;
55368;SDS011;41247;49.736;8.752;2023-08-07T08:01:26;13.60;;;5.32;;
55368;SDS011;41247;49.736;8.752;2023-08-07T08:05:07;15.73;;;4.35;;
55368;SDS011;41247;49.736;8.752;2023-08-07T08:08:47;12.95;;;4.97;;
55368;SDS011;41247;49.736;8.752;2023-08-07T08:12:30;20.63;;;5.25;;
55368;SDS011;41247;49.736;8.752;2023-08-07T08:16:10;11.63;;;4.70;;
55368;SDS011;41247;49.736;8.752;2023-08-07T08:19:51;16.88;;;4.80;;
55368;SDS011;41247;49.736;8.752;2023-08-07T08:23:33;14.80;;;5.35;;
55368;SDS011;41247;49.736;8.752;2023-08-07T08:27:13;16.10;;;4.55;;
55368;SDS011;41247;49.736;8.752;2023-08-07T08:30:54;11.65;;;4.50;;
55368;SDS011;41247;49.736;8.752;2023-08-07T08:34:34;14.88;;;5.07;;
55368;SDS011;41247;49.736;8.752;2023-08-07T08:38:15;15.27;;;5.35;;
55368;SDS011;41247;49.736;8.752;2023-08-07T08:41:56;20.35;;;5.32;;
55368;SDS011;41247;49.736;8.752;2023-08-07T08:45:37;14.30;;;5.22;;
55368;SDS011;41247;49.736;8.752;2023-08-07T08:49:18;13.95;;;5.35;;
55368;SDS011;41247;49.736;8.752;2023-08-07T08:53:06;13.82;;;5.28;;
55368;SDS011;41247;49.736;8.752;2023-08-07T08:56:48;15.35;;;4.55;;
55368;SDS011;41247;49.736;8.752;2023-08-07T09:00:30;13.45;;;4.35;;
55368;SDS011;41247;49.736;8.752;2023-08-07T09:04:10;12.45;;;4.72;;
55368;SDS011;41247;49.736;8.752;2023-08-07T09:07:51;17.10;;;4.57;;
55368;SDS011;41247;49.736;8.752;2023-08-07T09:11:32;13.65;;;5.00;;
55368;SDS011;41247;49.736;8.752;2023-08-07T09:15:15;12.55;;;4.82;;
55368;SDS011;41247;49.736;8.752;2023-08-07T09:18:58;14.90;;;4.75;;
55368;SDS011;41247;49.736;8.752;2023-08-07T09:22:39;20.25;;;5.03;;
55368;SDS011;41247;49.736;8.752;2023-08-07T09:26:22;14.90;;;4.60;;
55368;SDS011;41247;49.736;8.752;2023-08-07T09:30:04;17.10;;;4.55;;
55368;SDS011;41247;49.736;8.752;2023-08-07T09:33:47;13.20;;;5.18;;
55368;SDS011;41247;49.736;8.752;2023-08-07T09:37:28;14.73;;;4.75;;
55368;SDS011;41247;49.736;8.752;2023-08-07T09:41:09;12.57;;;4.28;;
55368;SDS011;41247;49.736;8.752;2023-08-07T09:44:49;16.15;;;4.20;;
55368;SDS011;41247;49.736;8.752;2023-08-07T09:48:30;8.98;;;4.07;;
55368;SDS011;41247;49.736;8.752;2023-08-07T09:52:12;14.68;;;3.78;;
55368;SDS011;41247;49.736;8.752;2023-08-07T09:55:54;15.38;;;3.80;;
55368;SDS011;41247;49.736;8.752;2023-08-07T09:59:36;8.30;;;3.67;;
55368;SDS011;41247;49.736;8.752;2023-08-07T10:03:16;17.35;;;4.20;;
55368;SDS011;41247;49.736;8.752;2023-08-07T10:06:57;13.98;;;3.72;;
55368;SDS011;41247;49.736;8.752;2023-08-07T10:10:38;15.05;;;3.97;;
55368;SDS011;41247;49.736;8.752;2023-08-07T10:14:19;17.73;;;4.40;;
55368;SDS011;41247;49.736;8.752;2023-08-07T10:18:02;13.88;;;4.00;;
55368;SDS011;41247;49.736;8.752;2023-08-07T10:21:42;11.68;;;4.00;;
55368;SDS011;41247;49.736;8.752;2023-08-07T10:25:23;15.25;;;4.68;;
55368;SDS011;41247;49.736;8.752;2023-08-07T10:29:07;11.07;;;4.20;;
55368;SDS011;41247;49.736;8.752;2023-08-07T10:32:53;13.43;;;4.70;;
55368;SDS011;41247;49.736;8.752;2023-08-07T10:36:35;13.77;;;3.47;;
55368;SDS011;41247;49.736;8.752;2023-08-07T10:40:16;12.15;;;3.45;;
55368;SDS011;41247;49.736;8.752;2023-08-07T10:43:57;12.98;;;3.20;;
55368;SDS011;41247;49.736;8.752;2023-08-07T10:47:37;7.68;;;3.55;;
55368;SDS011;41247;49.736;8.752;2023-08-07T10:51:20;14.90;;;3.70;;
55368;SDS011;41247;49.736;8.752;2023-08-07T10:55:00;11.23;;;3.28;;
55368;SDS011;41247;49.736;8.752;2023-08-07T10:58:41;7.88;;;3.30;;
55368;SDS011;41247;49.736;8.752;2023-08-07T11:02:25;8.07;;;3.50;;
55368;SDS011;41247;49.736;8.752;2023-08-07T11:06:09;10.23;;;3.95;;
55368;SDS011;41247;49.736;8.752;2023-08-07T11:09:50;10.70;;;4.22;;
55368;SDS011;41247;49.736;8.752;2023-08-07T11:13:31;14.77;;;3.90;;
55368;SDS011;41247;49.736;8.752;2023-08-07T11:17:13;12.75;;;4.63;;
55368;SDS011;41247;49.736;8.752;2023-08-07T11:20:57;10.30;;;4.18;;
55368;SDS011;41247;49.736;8.752;2023-08-07T11:24:37;12.27;;;4.43;;
55368;SDS011;41247;49.736;8.752;2023-08-07T11:28:19;12.38;;;4.55;;
55368;SDS011;41247;49.736;8.752;2023-08-07T11:32:01;11.38;;;4.30;;
55368;SDS011;41247;49.736;8.752;2023-08-07T11:35:42;16.77;;;4.35;;
55368;SDS011;41247;49.736;8.752;2023-08-07T11:39:23;10.23;;;4.35;;
55368;SDS011;41247;49.736;8.752;2023-08-07T11:43:04;11.43;;;4.10;;
55368;SDS011;41247;49.736;8.752;2023-08-07T11:46:44;12.10;;;3.97;;
55368;SDS011;41247;49.736;8.752;2023-08-07T11:50:27;9.90;;;3.90;;
55368;SDS011;41247;49.736;8.752;2023-08-07T11:54:13;10.52;;;3.90;;
55368;SDS011;41247;49.736;8.752;2023-08-07T11:57:54;9.45;;;3.88;;
55368;SDS011;41247;49.736;8.752;2023-08-07T12:01:37;9.75;;;4.32;;
55368;SDS011;41247;49.736;8.752;2023-08-07T12:05:18;12.63;;;4.30;;
55368;SDS011;41247;49.736;8.752;2023-08-07T12:08:59;8.75;;;3.22;;
55368;SDS011;41247;49.736;8.752;2023-08-07T12:12:39;5.18;;;2.90;;
55368;SDS011;41247;49.736;8.752;2023-08-07T12:16:20;8.85;;;3.13;;
55368;SDS011;41247;49.736;8.752;2023-08-07T12:20:02;10.45;;;3.15;;
55368;SDS011;41247;49.736;8.752;2023-08-07T12:23:46;8.65;;;3.10;;
55368;SDS011;41247;49.736;8.752;2023-08-07T12:27:27;6.85;;;3.28;;
55368;SDS011;41247;49.736;8.752;2023-08-07T12:31:07;10.27;;;3.58;;
55368;SDS011;41247;49.736;8.752;2023-08-07T12:34:48;13.68;;;3.10;;
55368;SDS011;41247;49.736;8.752;2023-08-07T12:38:29;8.77;;;3.28;;
55368;SDS011;41247;49.736;8.752;2023-08-07T12:42:10;10.77;;;3.40;;
55368;SDS011;41247;49.736;8.752;2023-08-07T12:45:50;11.77;;;3.22;;
55368;SDS011;41247;49.736;8.752;2023-08-07T12:49:31;15.65;;;3.10;;
55368;SDS011;41247;49.736;8.752;2023-08-07T12:53:11;4.70;;;2.85;;
55368;SDS011;41247;49.736;8.752;2023-08-07T12:56:52;8.45;;;3.30;;
55368;SDS011;41247;49.736;8.752;2023-08-07T13:00:33;9.68;;;3.25;;
55368;SDS011;41247;49.736;8.752;2023-08-07T13:04:13;9.13;;;2.92;;
55368;SDS011;41247;49.736;8.752;2023-08-07T13:07:54;10.30;;;2.85;;
55368;SDS011;41247;49.736;8.752;2023-08-07T13:11:34;11.40;;;2.78;;
55368;SDS011;41247;49.736;8.752;2023-08-07T13:15:15;8.60;;;2.90;;
55368;SDS011;41247;49.736;8.752;2023-08-07T13:18:57;8.77;;;2.83;;
55368;SDS011;41247;49.736;8.752;2023-08-07T13:22:38;8.88;;;2.80;;
55368;SDS011;41247;49.736;8.752;2023-08-07T13:26:24;5.78;;;2.28;;
55368;SDS011;41247;49.736;8.752;2023-08-07T13:30:04;7.78;;;2.30;;
55368;SDS011;41247;49.736;8.752;2023-08-07T13:33:46;7.20;;;2.20;;
55368;SDS011;41247;49.736;8.752;2023-08-07T13:37:27;7.78;;;2.55;;
55368;SDS011;41247;49.736;8.752;2023-08-07T13:41:07;9.35;;;1.95;;
55368;SDS011;41247;49.736;8.752;2023-08-07T13:44:48;5.70;;;2.13;;
55368;SDS011;41247;49.736;8.752;2023-08-07T13:48:29;4.07;;;2.20;;
55368;SDS011;41247;49.736;8.752;2023-08-07T13:52:09;5.72;;;2.00;;
55368;SDS011;41247;49.736;8.752;2023-08-07T13:55:50;5.18;;;1.83;;
55368;SDS011;41247;49.736;8.752;2023-08-07T13:59:30;6.15;;;2.10;;
55368;SDS011;41247;49.736;8.752;2023-08-07T14:03:11;4.80;;;2.00;;
55368;SDS011;41247;49.736;8.752;2023-08-07T14:06:52;6.63;;;2.25;;
55368;SDS011;41247;49.736;8.752;2023-08-07T14:10:32;5.63;;;1.90;;
55368;SDS011;41247;49.736;8.752;2023-08-07T14:14:13;3.95;;;2.30;;
55368;SDS011;41247;49.736;8.752;2023-08-07T14:17:53;3.42;;;1.70;;
55368;SDS011;41247;49.736;8.752;2023-08-07T14:21:34;6.53;;;2.00;;
55368;SDS011;41247;49.736;8.752;2023-08-07T14:25:15;7.15;;;2.03;;
55368;SDS011;41247;49.736;8.752;2023-08-07T14:28:55;6.85;;;2.05;;
55368;SDS011;41247;49.736;8.752;2023-08-07T14:32:36;3.42;;;1.60;;
55368;SDS011;41247;49.736;8.752;2023-08-07T14:36:17;3.50;;;2.05;;
55368;SDS011;41247;49.736;8.752;2023-08-07T14:39:57;5.95;;;2.17;;
55368;SDS011;41247;49.736;8.752;2023-08-07T14:43:38;6.55;;;2.05;;
55368;SDS011;41247;49.736;8.752;2023-08-07T14:47:20;5.70;;;1.85;;
55368;SDS011;41247;49.736;8.752;2023-08-07T14:51:02;3.40;;;1.60;;
55368;SDS011;41247;49.736;8.752;2023-08-07T14:54:42;5.18;;;1.88;;
55368;SDS011;41247;49.736;8.752;2023-08-07T14:58:23;3.45;;;1.80;;
55368;SDS011;41247;49.736;8.752;2023-08-07T15:02:04;3.95;;;1.63;;
55368;SDS011;41247;49.736;8.752;2023-08-07T15:05:45;4.85;;;1.65;;
55368;SDS011;41247;49.736;8.752;2023-08-07T15:09:26;4.82;;;2.08;;
55368;SDS011;41247;49.736;8.752;2023-08-07T15:13:06;2.85;;;1.35;;
55368;SDS011;41247;49.736;8.752;2023-08-07T15:16:48;4.60;;;1.88;;
55368;SDS011;41247;49.736;8.752;2023-08-07T15:20:29;4.88;;;1.70;;
55368;SDS011;41247;49.736;8.752;2023-08-07T15:24:09;4.13;;;1.63;;
55368;SDS011;41247;49.736;8.752;2023-08-07T15:27:50;2.58;;;1.50;;
55368;SDS011;41247;49.736;8.752;2023-08-07T15:31:31;7.85;;;1.80;;
55368;SDS011;41247;49.736;8.752;2023-08-07T15:35:11;3.45;;;1.60;;
55368;SDS011;41247;49.736;8.752;2023-08-07T15:38:52;4.25;;;1.75;;
55368;SDS011;41247;49.736;8.752;2023-08-07T15:42:33;5.22;;;1.88;;
55368;SDS011;41247;49.736;8.752;2023-08-07T15:46:13;8.65;;;1.77;;
55368;SDS011;41247;49.736;8.752;2023-08-07T15:49:54;7.28;;;1.88;;
55368;SDS011;41247;49.736;8.752;2023-08-07T15:53:34;4.35;;;1.70;;
55368;SDS011;41247;49.736;8.752;2023-08-07T15:57:15;5.80;;;1.98;;
55368;SDS011;41247;49.736;8.752;2023-08-07T16:00:56;3.92;;;1.55;;
55368;SDS011;41247;49.736;8.752;2023-08-07T16:04:36;3.05;;;1.95;;
55368;SDS011;41247;49.736;8.752;2023-08-07T16:08:17;7.47;;;1.83;;
55368;SDS011;41247;49.736;8.752;2023-08-07T16:11:58;4.75;;;1.88;;
55368;SDS011;41247;49.736;8.752;2023-08-07T16:15:38;4.63;;;1.83;;
55368;SDS011;41247;49.736;8.752;2023-08-07T16:19:19;7.78;;;1.90;;
55368;SDS011;41247;49.736;8.752;2023-08-07T16:23:00;3.58;;;1.60;;
55368;SDS011;41247;49.736;8.752;2023-08-07T16:26:40;6.35;;;1.83;;
55368;SDS011;41247;49.736;8.752;2023-08-07T16:30:21;7.50;;;2.13;;
55368;SDS011;41247;49.736;8.752;2023-08-07T16:34:01;5.00;;;2.25;;
55368;SDS011;41247;49.736;8.752;2023-08-07T16:37:42;3.35;;;1.70;;
55368;SDS011;41247;49.736;8.752;2023-08-07T16:41:23;5.72;;;2.10;;
55368;SDS011;41247;49.736;8.752;2023-08-07T16:45:04;3.90;;;1.90;;
55368;SDS011;41247;49.736;8.752;2023-08-07T16:48:45;4.95;;;1.75;;
55368;SDS011;41247;49.736;8.752;2023-08-07T16:52:26;2.17;;;1.45;;
55368;SDS011;41247;49.736;8.752;2023-08-07T16:56:06;9.32;;;1.85;;
55368;SDS011;41247;49.736;8.752;2023-08-07T16:59:47;6.20;;;1.77;;
55368;SDS011;41247;49.736;8.752;2023-08-07T17:03:28;4.40;;;1.70;;
55368;SDS011;41247;49.736;8.752;2023-08-07T17:07:08;3.58;;;1.83;;
55368;SDS011;41247;49.736;8.752;2023-08-07T17:10:49;2.70;;;1.67;;
55368;SDS011;41247;49.736;8.752;2023-08-07T17:14:29;4.90;;;1.58;;
55368;SDS011;41247;49.736;8.752;2023-08-07T17:18:10;2.95;;;1.70;;
55368;SDS011;41247;49.736;8.752;2023-08-07T17:21:50;7.03;;;1.88;;
55368;SDS011;41247;49.736;8.752;2023-08-07T17:25:31;3.33;;;1.70;;
55368;SDS011;41247;49.736;8.752;2023-08-07T17:29:12;5.10;;;2.10;;
55368;SDS011;41247;49.736;8.752;2023-08-07T17:32:52;6.15;;;1.77;;
55368;SDS011;41247;49.736;8.752;2023-08-07T17:36:33;2.72;;;1.75;;
55368;SDS011;41247;49.736;8.752;2023-08-07T17:40:13;3.83;;;1.45;;
55368;SDS011;41247;49.736;8.752;2023-08-07T17:43:55;3.60;;;1.73;;
55368;SDS011;41247;49.736;8.752;2023-08-07T17:47:35;7.55;;;1.58;;
55368;SDS011;41247;49.736;8.752;2023-08-07T17:51:16;3.85;;;1.48;;
55368;SDS011;41247;49.736;8.752;2023-08-07T17:54:57;3.38;;;1.40;;
55368;SDS011;41247;49.736;8.752;2023-08-07T17:58:37;2.85;;;1.40;;
55368;SDS011;41247;49.736;8.752;2023-08-07T18:02:18;3.85;;;1.70;;
55368;SDS011;41247;49.736;8.752;2023-08-07T18:05:58;6.75;;;1.75;;
55368;SDS011;41247;49.736;8.752;2023-08-07T18:09:39;3.40;;;1.65;;
55368;SDS011;41247;49.736;8.752;2023-08-07T18:13:20;2.85;;;1.58;;
55368;SDS011;41247;49.736;8.752;2023-08-07T18:17:00;2.90;;;1.52;;
55368;SDS011;41247;49.736;8.752;2023-08-07T18:20:41;3.05;;;1.35;;
55368;SDS011;41247;49.736;8.752;2023-08-07T18:24:21;3.03;;;1.30;;
55368;SDS011;41247;49.736;8.752;2023-08-07T18:28:02;5.65;;;1.52;;
55368;SDS011;41247;49.736;8.752;2023-08-07T18:31:43;2.45;;;1.35;;
55368;SDS011;41247;49.736;8.752;2023-08-07T18:35:24;4.80;;;1.40;;
55368;SDS011;41247;49.736;8.752;2023-08-07T18:39:04;3.17;;;1.60;;
55368;SDS011;41247;49.736;8.752;2023-08-07T18:42:45;2.20;;;1.50;;
55368;SDS011;41247;49.736;8.752;2023-08-07T18:46:26;1.98;;;1.13;;
55368;SDS011;41247;49.736;8.752;2023-08-07T18:50:06;4.93;;;1.52;;
55368;SDS011;41247;49.736;8.752;2023-08-07T18:53:47;6.45;;;1.90;;
55368;SDS011;41247;49.736;8.752;2023-08-07T18:57:28;3.65;;;1.40;;
55368;SDS011;41247;49.736;8.752;2023-08-07T19:01:09;3.47;;;1.52;;
55368;SDS011;41247;49.736;8.752;2023-08-07T19:04:50;2.88;;;1.73;;
55368;SDS011;41247;49.736;8.752;2023-08-07T19:08:33;3.38;;;1.80;;
55368;SDS011;41247;49.736;8.752;2023-08-07T19:12:14;2.42;;;1.60;;
55368;SDS011;41247;49.736;8.752;2023-08-07T19:15:55;2.75;;;1.40;;
55368;SDS011;41247;49.736;8.752;2023-08-07T19:19:36;4.32;;;1.40;;
55368;SDS011;41247;49.736;8.752;2023-08-07T19:23:17;4.20;;;1.40;;
55368;SDS011;41247;49.736;8.752;2023-08-07T19:26:58;4.35;;;1.48;;
55368;SDS011;41247;49.736;8.752;2023-08-07T19:30:38;2.30;;;1.67;;
55368;SDS011;41247;49.736;8.752;2023-08-07T19:34:19;3.45;;;1.80;;
55368;SDS011;41247;49.736;8.752;2023-08-07T19:38:00;4.38;;;1.73;;
55368;SDS011;41247;49.736;8.752;2023-08-07T19:41:40;5.18;;;2.08;;
55368;SDS011;41247;49.736;8.752;2023-08-07T19:45:21;2.85;;;1.70;;
55368;SDS011;41247;49.736;8.752;2023-08-07T19:49:01;4.88;;;2.00;;
55368;SDS011;41247;49.736;8.752;2023-08-07T19:52:42;4.07;;;1.40;;
55368;SDS011;41247;49.736;8.752;2023-08-07T19:56:23;2.75;;;1.67;;
55368;SDS011;41247;49.736;8.752;2023-08-07T20:00:04;4.50;;;1.67;;
55368;SDS011;41247;49.736;8.752;2023-08-07T20:03:45;2.60;;;1.58;;
55368;SDS011;41247;49.736;8.752;2023-08-07T20:07:26;8.43;;;2.15;;
55368;SDS011;41247;49.736;8.752;2023-08-07T20:11:06;4.15;;;1.48;;
55368;SDS011;41247;49.736;8.752;2023-08-07T20:14:47;4.30;;;1.80;;
55368;SDS011;41247;49.736;8.752;2023-08-07T20:18:28;5.28;;;1.58;;
55368;SDS011;41247;49.736;8.752;2023-08-07T20:22:09;3.10;;;1.60;;
55368;SDS011;41247;49.736;8.752;2023-08-07T20:25:49;2.65;;;1.55;;
55368;SDS011;41247;49.736;8.752;2023-08-07T20:29:30;4.43;;;1.90;;
55368;SDS011;41247;49.736;8.752;2023-08-07T20:33:11;4.78;;;1.90;;
55368;SDS011;41247;49.736;8.752;2023-08-07T20:36:51;5.35;;;2.10;;
55368;SDS011;41247;49.736;8.752;2023-08-07T20:40:32;3.72;;;1.65;;
55368;SDS011;41247;49.736;8.752;2023-08-07T20:44:12;5.07;;;2.10;;
55368;SDS011;41247;49.736;8.752;2023-08-07T20:47:53;2.47;;;1.70;;
55368;SDS011;41247;49.736;8.752;2023-08-07T20:51:34;5.30;;;1.90;;
55368;SDS011;41247;49.736;8.752;2023-08-07T20:55:14;4.13;;;1.73;;
55368;SDS011;41247;49.736;8.752;2023-08-07T20:58:55;2.97;;;1.70;;
55368;SDS011;41247;49.736;8.752;2023-08-07T21:02:36;3.08;;;1.70;;
55368;SDS011;41247;49.736;8.752;2023-08-07T21:06:16;2.95;;;1.80;;
55368;SDS011;41247;49.736;8.752;2023-08-07T21:09:57;3.45;;;1.60;;
55368;SDS011;41247;49.736;8.752;2023-08-07T21:13:38;2.65;;;1.55;;
55368;SDS011;41247;49.736;8.752;2023-08-07T21:17:19;3.05;;;1.60;;
55368;SDS011;41247;49.736;8.752;2023-08-07T21:20:59;3.15;;;1.67;;
55368;SDS011;41247;49.736;8.752;2023-08-07T21:24:40;4.25;;;1.85;;
55368;SDS011;41247;49.736;8.752;2023-08-07T21:28:21;3.05;;;1.60;;
55368;SDS011;41247;49.736;8.752;2023-08-07T21:32:01;2.42;;;1.65;;
55368;SDS011;41247;49.736;8.752;2023-08-07T21:35:42;2.95;;;1.50;;
55368;SDS011;41247;49.736;8.752;2023-08-07T21:39:23;4.80;;;1.77;;
55368;SDS011;41247;49.736;8.752;2023-08-07T21:43:03;4.30;;;1.65;;
55368;SDS011;41247;49.736;8.752;2023-08-07T21:46:44;3.80;;;2.00;;
55368;SDS011;41247;49.736;8.752;2023-08-07T21:50:24;2.72;;;1.58;;
55368;SDS011;41247;49.736;8.752;2023-08-07T21:54:05;7.60;;;2.00;;
55368;SDS011;41247;49.736;8.752;2023-08-07T21:57:46;2.63;;;1.60;;
55368;SDS011;41247;49.736;8.752;2023-08-07T22:01:26;4.07;;;1.73;;
55368;SDS011;41247;49.736;8.752;2023-08-07T22:05:07;3.08;;;1.63;;
55368;SDS011;41247;49.736;8.752;2023-08-07T22:08:49;2.90;;;1.40;;